createdAt,value
2022-12-08T00:01:32.615Z,13.15
2022-12-08T00:04:01.672Z,12.98
2022-12-08T00:06:49.538Z,11.13
2022-12-08T00:09:39.794Z,13.25
2022-12-08T00:12:11.155Z,12.55
2022-12-08T00:14:42.293Z,12.55
2022-12-08T00:17:11.588Z,12.02
2022-12-08T00:19:40.477Z,14.70
2022-12-08T00:22:09.890Z,14.30
2022-12-08T00:24:39.903Z,12.80
2022-12-08T00:27:09.472Z,11.18
2022-12-08T00:29:37.663Z,11.63
2022-12-08T00:32:05.776Z,12.60
2022-12-08T00:34:34.032Z,10.57
2022-12-08T00:37:01.739Z,9.73
2022-12-08T00:39:29.349Z,10.75
2022-12-08T00:42:14.977Z,10.30
2022-12-08T00:44:44.843Z,12.65
2022-12-08T00:47:13.993Z,12.40
2022-12-08T00:49:42.395Z,11.50
2022-12-08T00:52:10.126Z,13.25
2022-12-08T00:54:37.884Z,10.98
2022-12-08T00:57:05.605Z,10.82
2022-12-08T00:59:33.286Z,12.02
2022-12-08T01:02:01.142Z,11.05
2022-12-08T01:04:28.886Z,11.98
2022-12-08T01:06:56.568Z,10.13
2022-12-08T01:09:24.321Z,9.05
2022-12-08T01:11:52.049Z,10.85
2022-12-08T01:14:19.797Z,10.10
2022-12-08T01:16:47.371Z,11.13
2022-12-08T01:19:16.360Z,11.10
2022-12-08T01:21:45.740Z,9.48
2022-12-08T01:24:19.573Z,10.23
2022-12-08T01:26:48.661Z,10.40
2022-12-08T01:29:16.466Z,10.00
2022-12-08T01:31:43.962Z,11.95
2022-12-08T01:34:13.099Z,11.02
2022-12-08T01:36:42.092Z,11.35
2022-12-08T01:39:17.405Z,11.27
2022-12-08T01:41:47.756Z,11.98
2022-12-08T01:44:15.496Z,10.27
2022-12-08T01:46:45.302Z,12.18
2022-12-08T01:49:21.195Z,9.85
2022-12-08T01:51:57.259Z,11.00
2022-12-08T01:54:29.303Z,10.90
2022-12-08T01:57:22.886Z,11.38
2022-12-08T02:02:29.587Z,11.10
2022-12-08T02:04:57.338Z,9.82
2022-12-08T02:07:25.375Z,10.65
2022-12-08T02:09:54.198Z,10.30
2022-12-08T02:12:22.257Z,11.05
2022-12-08T02:14:49.889Z,12.40
2022-12-08T02:17:41.441Z,10.95
2022-12-08T02:20:34.259Z,9.77
2022-12-08T02:23:15.500Z,11.57
2022-12-08T02:26:24.654Z,10.95
2022-12-08T02:29:19.687Z,11.73
2022-12-08T02:32:20.290Z,13.07
2022-12-08T02:34:59.755Z,10.30
2022-12-08T02:37:33.265Z,10.63
2022-12-08T02:40:27.550Z,10.82
2022-12-08T02:43:04.785Z,11.90
2022-12-08T02:45:39.281Z,10.13
2022-12-08T02:48:09.179Z,9.93
2022-12-08T02:50:37.125Z,10.60
2022-12-08T02:56:14.733Z,9.18
2022-12-08T02:58:42.748Z,10.00
2022-12-08T03:01:40.422Z,9.85
2022-12-08T03:04:19.315Z,11.35
2022-12-08T03:07:13.322Z,11.70
2022-12-08T03:09:55.171Z,9.90
2022-12-08T03:13:18.832Z,8.82
2022-12-08T03:16:05.270Z,8.85
2022-12-08T03:18:39.367Z,9.93
2022-12-08T03:21:08.283Z,8.85
2022-12-08T03:23:39.117Z,10.63
2022-12-08T03:26:18.925Z,9.75
2022-12-08T03:28:47.201Z,9.13
2022-12-08T03:31:17.874Z,10.40
2022-12-08T03:33:51.437Z,8.70
2022-12-08T03:38:52.951Z,8.82
2022-12-08T03:43:53.482Z,8.05
2022-12-08T03:48:50.865Z,8.43
2022-12-08T03:51:19.339Z,7.30
2022-12-08T03:53:47.529Z,7.40
2022-12-08T03:56:24.073Z,7.25
2022-12-08T03:58:52.152Z,8.18
2022-12-08T04:01:20.549Z,9.60
2022-12-08T04:03:48.704Z,9.43
2022-12-08T04:06:17.324Z,8.43
2022-12-08T04:08:45.091Z,10.45
2022-12-08T04:11:12.801Z,8.10
2022-12-08T04:13:41.951Z,9.93
2022-12-08T04:16:16.226Z,8.00
2022-12-08T04:18:44.108Z,9.25
2022-12-08T04:21:12.004Z,7.85
2022-12-08T04:23:39.663Z,10.07
2022-12-08T04:26:07.890Z,9.82
2022-12-08T04:28:35.508Z,6.75
2022-12-08T04:31:03.462Z,9.73
2022-12-08T04:33:31.602Z,8.35
2022-12-08T04:35:59.485Z,7.68
2022-12-08T04:38:27.609Z,7.25
2022-12-08T04:40:55.251Z,8.63
2022-12-08T04:43:22.888Z,9.88
2022-12-08T04:45:50.831Z,8.07
2022-12-08T04:48:18.467Z,7.07
2022-12-08T04:50:46.407Z,8.40
2022-12-08T04:53:14.294Z,10.23
2022-12-08T04:55:44.284Z,8.25
2022-12-08T04:58:16.873Z,8.70
2022-12-08T05:00:45.077Z,7.83
2022-12-08T05:03:13.197Z,9.30
2022-12-08T05:05:42.251Z,8.90
2022-12-08T05:08:10.928Z,7.95
2022-12-08T05:10:38.957Z,8.32
2022-12-08T05:13:06.804Z,7.75
2022-12-08T05:15:34.681Z,8.57
2022-12-08T05:18:02.324Z,8.63
2022-12-08T05:20:29.896Z,8.88
2022-12-08T05:22:57.485Z,8.10
2022-12-08T05:25:25.152Z,9.77
2022-12-08T05:28:01.706Z,10.30
2022-12-08T05:30:39.490Z,8.50
2022-12-08T05:33:07.312Z,9.82
2022-12-08T05:35:35.227Z,8.18
2022-12-08T05:38:02.936Z,8.48
2022-12-08T05:40:30.694Z,8.13
2022-12-08T05:42:58.518Z,9.85
2022-12-08T05:45:26.303Z,8.18
2022-12-08T05:47:54.223Z,8.70
2022-12-08T05:50:21.951Z,7.68
2022-12-08T05:52:49.542Z,8.30
2022-12-08T05:55:17.414Z,7.35
2022-12-08T05:57:44.975Z,7.15
2022-12-08T06:00:13.503Z,6.97
2022-12-08T06:02:41.561Z,7.13
2022-12-08T06:05:10.043Z,7.45
2022-12-08T06:07:38.855Z,7.75
2022-12-08T06:10:07.568Z,6.45
2022-12-08T06:12:35.513Z,7.60
2022-12-08T06:15:03.727Z,6.55
2022-12-08T06:17:31.554Z,6.55
2022-12-08T06:19:59.232Z,7.10
2022-12-08T06:22:27.331Z,7.10
2022-12-08T06:24:55.118Z,7.78
2022-12-08T06:27:22.659Z,7.55
2022-12-08T06:29:50.439Z,7.20
2022-12-08T06:32:20.769Z,7.20
2022-12-08T06:34:52.813Z,6.88
2022-12-08T06:37:20.458Z,7.63
2022-12-08T06:39:48.020Z,7.38
2022-12-08T06:42:34.164Z,7.93
2022-12-08T06:45:02.783Z,8.20
2022-12-08T06:47:32.128Z,8.18
2022-12-08T06:50:20.952Z,7.20
2022-12-08T06:53:02.815Z,8.07
2022-12-08T06:58:22.022Z,8.13
2022-12-08T07:00:52.330Z,8.65
2022-12-08T07:03:20.849Z,7.65
2022-12-08T07:06:03.785Z,7.78
2022-12-08T07:08:35.894Z,10.23
2022-12-08T07:11:20.969Z,8.75
2022-12-08T07:13:50.894Z,9.60
2022-12-08T07:16:19.435Z,9.15
2022-12-08T07:18:47.252Z,9.65
2022-12-08T07:21:16.689Z,7.97
2022-12-08T07:23:54.253Z,8.07
2022-12-08T07:26:23.742Z,8.60
2022-12-08T07:28:51.675Z,8.75
2022-12-08T07:31:22.984Z,8.18
2022-12-08T07:33:52.064Z,8.50
2022-12-08T07:36:20.163Z,7.95
2022-12-08T07:38:48.975Z,8.05
2022-12-08T07:41:19.088Z,8.40
2022-12-08T07:43:48.180Z,8.35
2022-12-08T07:46:21.927Z,8.40
2022-12-08T07:48:49.720Z,8.23
2022-12-08T07:51:17.863Z,7.43
2022-12-08T07:53:53.440Z,7.65
2022-12-08T07:56:22.909Z,8.13
2022-12-08T07:58:50.927Z,7.65
2022-12-08T08:01:31.350Z,6.03
2022-12-08T08:04:02.034Z,7.10
2022-12-08T08:06:29.895Z,6.30
2022-12-08T08:08:57.822Z,6.57
2022-12-08T08:11:25.667Z,8.07
2022-12-08T08:13:53.699Z,8.70
2022-12-08T08:16:21.845Z,7.35
2022-12-08T08:18:50.985Z,7.35
2022-12-08T08:21:44.543Z,5.95
2022-12-08T08:24:08.162Z,7.57
2022-12-08T08:26:36.976Z,7.45
2022-12-08T08:29:04.807Z,7.18
2022-12-08T08:31:32.752Z,5.75
2022-12-08T08:34:05.102Z,6.90
2022-12-08T08:36:33.085Z,5.97
2022-12-08T08:39:00.993Z,6.60
2022-12-08T08:41:28.670Z,7.63
2022-12-08T08:43:56.415Z,6.20
2022-12-08T08:46:24.424Z,5.85
2022-12-08T08:48:52.790Z,7.30
2022-12-08T08:51:20.659Z,7.10
2022-12-08T08:53:48.438Z,6.45
2022-12-08T08:56:22.414Z,7.28
2022-12-08T08:58:50.771Z,6.07
2022-12-08T09:01:21.463Z,6.80
2022-12-08T09:03:49.432Z,8.25
2022-12-08T09:06:18.971Z,7.25
2022-12-08T09:08:47.698Z,6.22
2022-12-08T09:11:18.631Z,7.50
2022-12-08T09:13:50.644Z,5.80
2022-12-08T09:16:18.734Z,8.48
2022-12-08T09:18:47.353Z,7.60
2022-12-08T09:21:20.431Z,6.78
2022-12-08T09:23:49.817Z,6.88
2022-12-08T09:26:17.656Z,8.20
2022-12-08T09:28:46.739Z,7.18
2022-12-08T09:31:14.772Z,7.00
2022-12-08T09:33:42.837Z,6.88
2022-12-08T09:36:11.284Z,7.00
2022-12-08T09:38:40.471Z,8.43
2022-12-08T09:41:20.152Z,8.70
2022-12-08T09:44:06.154Z,9.82
2022-12-08T09:46:35.583Z,8.73
2022-12-08T09:49:04.520Z,10.20
2022-12-08T09:51:38.276Z,11.90
2022-12-08T09:54:15.700Z,8.90
2022-12-08T09:56:43.727Z,13.82
2022-12-08T10:35:48.158Z,12.02
2022-12-08T10:38:42.046Z,8.70
2022-12-08T10:41:10.029Z,11.35
2022-12-08T10:43:39.671Z,12.10
2022-12-08T10:46:13.229Z,10.23
2022-12-08T10:51:30.464Z,11.35
2022-12-08T10:53:58.258Z,11.32
2022-12-08T10:56:28.911Z,12.00
2022-12-08T10:59:05.518Z,12.02
2022-12-08T11:01:38.037Z,10.57
2022-12-08T11:04:13.789Z,10.30
2022-12-08T11:06:42.451Z,10.25
2022-12-08T11:09:16.132Z,12.15
2022-12-08T11:14:17.376Z,10.15
2022-12-08T11:16:45.665Z,6.25
2022-12-08T11:19:18.712Z,12.50
2022-12-08T11:21:47.421Z,15.73
2022-12-08T11:24:18.011Z,11.88
2022-12-08T11:26:51.428Z,16.50
2022-12-08T11:29:19.339Z,14.07
2022-12-08T11:31:57.657Z,17.05
2022-12-08T11:34:51.924Z,14.85
2022-12-08T11:40:14.911Z,15.30
2022-12-08T11:43:01.052Z,11.77
2022-12-08T11:45:32.799Z,15.32
2022-12-08T11:48:12.904Z,13.98
2022-12-08T11:51:14.141Z,12.45
2022-12-08T11:54:00.145Z,13.07
2022-12-08T11:56:37.309Z,16.50
2022-12-08T11:59:19.565Z,15.77
2022-12-08T12:01:47.309Z,13.98
2022-12-08T12:04:26.754Z,15.10
2022-12-08T12:07:12.657Z,16.77
2022-12-08T12:10:10.385Z,12.50
2022-12-08T12:12:47.608Z,16.10
2022-12-08T12:15:46.096Z,15.35
2022-12-08T12:18:38.771Z,14.57
2022-12-08T12:21:18.434Z,14.80
2022-12-08T12:23:58.800Z,14.20
2022-12-08T12:26:36.537Z,14.88
2022-12-08T12:29:06.727Z,18.30
2022-12-08T12:31:41.740Z,17.08
2022-12-08T12:34:17.032Z,15.07
2022-12-08T12:37:13.228Z,13.85
2022-12-08T12:39:56.141Z,19.10
2022-12-08T12:42:56.057Z,16.35
2022-12-08T12:45:29.205Z,15.63
2022-12-08T12:47:57.416Z,14.07
2022-12-08T12:50:34.732Z,14.55
2022-12-08T12:53:13.617Z,16.60
2022-12-08T12:55:58.067Z,16.00
2022-12-08T12:58:28.492Z,15.80
2022-12-08T13:01:09.054Z,13.40
2022-12-08T13:03:58.281Z,15.25
2022-12-08T13:06:47.983Z,14.85
2022-12-08T13:09:28.777Z,19.95
2022-12-08T13:11:59.843Z,18.60
2022-12-08T13:14:37.086Z,16.65
2022-12-08T13:17:12.314Z,21.40
2022-12-08T13:19:41.957Z,18.30
2022-12-08T13:22:48.202Z,22.75
2022-12-08T13:25:40.222Z,16.50
2022-12-08T13:28:31.243Z,17.27
2022-12-08T13:31:03.261Z,12.93
2022-12-08T13:33:40.267Z,19.05
2022-12-08T13:36:26.102Z,16.65
2022-12-08T13:38:58.214Z,16.50
2022-12-08T13:41:38.222Z,15.20
2022-12-08T13:54:16.984Z,15.63
2022-12-08T13:58:48.419Z,15.48
2022-12-08T14:01:21.827Z,15.13
2022-12-08T14:04:33.766Z,15.40
2022-12-08T14:06:59.936Z,16.75
2022-12-08T14:09:33.851Z,17.08
2022-12-08T14:12:07.044Z,22.13
2022-12-08T14:15:02.471Z,19.05
2022-12-08T14:17:32.086Z,15.73
2022-12-08T14:20:03.142Z,21.25
2022-12-08T14:22:36.433Z,24.90
2022-12-08T14:25:06.220Z,24.13
2022-12-08T14:27:38.603Z,23.55
2022-12-08T14:30:13.599Z,21.95
2022-12-08T14:33:12.806Z,20.92
2022-12-08T14:35:41.562Z,31.58
2022-12-08T14:38:18.146Z,33.65
2022-12-08T14:41:01.139Z,25.23
2022-12-08T14:43:30.728Z,24.37
2022-12-08T14:46:05.152Z,23.77
2022-12-08T14:48:38.569Z,26.55
2022-12-08T14:53:46.588Z,20.77
2022-12-08T14:56:17.300Z,20.75
2022-12-08T14:58:45.451Z,23.95
2022-12-08T15:01:17.197Z,25.17
2022-12-08T15:03:50.739Z,25.10
2022-12-08T15:06:22.506Z,22.70
2022-12-08T15:08:58.820Z,23.15
2022-12-08T15:11:32.832Z,25.48
2022-12-08T15:14:00.777Z,22.42
2022-12-08T15:16:37.273Z,23.80
2022-12-08T15:19:17.446Z,18.13
2022-12-08T15:21:47.029Z,25.05
2022-12-08T15:24:15.828Z,23.70
2022-12-08T15:26:49.916Z,23.27
2022-12-08T15:29:20.940Z,24.92
2022-12-08T15:31:49.331Z,23.27
2022-12-08T15:34:17.352Z,22.13
2022-12-08T15:36:45.884Z,31.60
2022-12-08T15:39:19.479Z,22.15
2022-12-08T15:44:14.859Z,23.08
2022-12-08T15:46:42.824Z,22.27
2022-12-08T15:49:17.661Z,21.73
2022-12-08T15:51:45.623Z,22.95
2022-12-08T15:54:13.523Z,24.58
2022-12-08T15:57:18.647Z,23.20
2022-12-08T15:59:42.581Z,27.10
2022-12-08T16:02:17.929Z,24.05
2022-12-08T16:07:38.356Z,21.77
2022-12-08T16:10:08.284Z,25.38
2022-12-08T16:13:55.137Z,21.48
2022-12-08T16:16:01.186Z,25.80
2022-12-08T16:18:36.010Z,33.10
2022-12-08T16:21:16.619Z,31.38
2022-12-08T16:23:52.566Z,23.15
2022-12-08T16:29:18.828Z,22.98
2022-12-08T16:31:47.038Z,21.73
2022-12-08T16:34:14.845Z,26.13
2022-12-08T16:36:42.598Z,30.65
2022-12-08T16:39:13.176Z,25.65
2022-12-08T16:41:59.462Z,24.83
2022-12-08T16:44:27.687Z,20.92
2022-12-08T16:46:55.836Z,27.83
2022-12-08T16:49:23.580Z,25.80
2022-12-08T16:51:52.201Z,24.98
2022-12-08T16:54:20.101Z,24.45
2022-12-08T16:56:47.984Z,26.60
2022-12-08T16:59:15.851Z,27.52
2022-12-08T17:01:43.833Z,28.60
2022-12-08T17:04:31.177Z,25.95
2022-12-08T17:06:59.988Z,22.13
2022-12-08T17:09:28.673Z,24.40
2022-12-08T17:12:01.921Z,23.15
2022-12-08T17:14:39.182Z,24.13
2022-12-08T17:17:10.654Z,24.55
2022-12-08T17:19:38.564Z,23.05
2022-12-08T17:22:06.685Z,24.70
2022-12-08T17:24:34.515Z,25.48
2022-12-08T17:27:04.999Z,27.58
2022-12-08T17:29:33.974Z,25.15
2022-12-08T17:32:02.066Z,27.45
2022-12-08T17:34:29.940Z,29.08
2022-12-08T17:36:57.823Z,28.00
2022-12-08T17:39:25.998Z,26.55
2022-12-08T17:41:54.088Z,32.92
2022-12-08T17:44:21.932Z,35.67
2022-12-08T17:46:52.878Z,29.08
2022-12-08T17:49:25.150Z,28.67
2022-12-08T17:51:56.949Z,28.05
2022-12-08T17:54:25.714Z,25.95
2022-12-08T17:56:54.117Z,30.80
2022-12-08T17:59:22.288Z,27.02
2022-12-08T18:01:52.994Z,26.88
2022-12-08T18:04:21.596Z,29.77
2022-12-08T18:06:49.583Z,31.50
2022-12-08T18:09:17.409Z,35.17
2022-12-08T18:11:46.421Z,29.20
2022-12-08T18:14:15.294Z,29.05
2022-12-08T18:16:45.779Z,32.58
2022-12-08T18:19:14.269Z,28.65
2022-12-08T18:21:42.798Z,32.95
2022-12-08T18:24:18.160Z,29.85
2022-12-08T18:26:46.676Z,29.13
2022-12-08T18:29:14.597Z,27.70
2022-12-08T18:31:44.935Z,35.45
2022-12-08T18:34:12.598Z,30.75
2022-12-08T18:36:40.557Z,34.85
2022-12-08T18:39:26.173Z,30.55
2022-12-08T18:41:54.992Z,31.58
2022-12-08T18:44:23.187Z,30.08
2022-12-08T18:46:51.071Z,28.45
2022-12-08T18:49:20.171Z,27.55
2022-12-08T18:51:48.195Z,25.15
2022-12-08T18:54:15.983Z,23.75
2022-12-08T18:56:44.073Z,21.85
2022-12-08T18:59:13.850Z,25.42
2022-12-08T19:01:41.794Z,20.25
2022-12-08T19:06:58.364Z,22.65
2022-12-08T19:09:26.896Z,24.20
2022-12-08T19:11:55.475Z,21.77
2022-12-08T19:14:28.234Z,22.70
2022-12-08T19:16:57.809Z,27.85
2022-12-08T19:19:26.815Z,20.67
2022-12-08T19:21:55.173Z,23.98
2022-12-08T19:24:23.790Z,27.95
2022-12-08T19:26:51.990Z,23.73
2022-12-08T19:29:20.022Z,25.02
2022-12-08T19:31:48.204Z,23.30
2022-12-08T19:34:16.213Z,22.00
2022-12-08T19:36:44.599Z,23.75
2022-12-08T19:39:36.464Z,27.15
2022-12-08T19:42:43.323Z,23.90
2022-12-08T19:45:14.841Z,26.98
2022-12-08T19:47:43.127Z,23.45
2022-12-08T19:50:32.242Z,24.23
2022-12-08T19:53:01.407Z,24.23
2022-12-08T19:55:30.029Z,20.63
2022-12-08T19:57:58.504Z,21.80
2022-12-08T20:00:26.499Z,24.15
2022-12-08T20:02:54.834Z,22.75
2022-12-08T20:05:23.147Z,22.70
2022-12-08T20:07:52.595Z,22.67
2022-12-08T20:10:28.284Z,20.42
2022-12-08T20:13:16.906Z,20.45
2022-12-08T20:15:45.302Z,20.38
2022-12-08T20:18:16.180Z,21.48
2022-12-08T20:20:45.356Z,23.80
2022-12-08T20:23:14.627Z,22.58
2022-12-08T20:25:45.296Z,23.35
2022-12-08T20:28:13.335Z,23.00
2022-12-08T20:30:42.236Z,19.52
2022-12-08T20:33:13.671Z,21.65
2022-12-08T20:35:42.080Z,23.60
2022-12-08T20:38:10.872Z,21.65
2022-12-08T20:40:46.423Z,24.23
2022-12-08T20:43:15.308Z,25.10
2022-12-08T20:45:43.088Z,22.10
2022-12-08T20:48:11.620Z,21.88
2022-12-08T20:50:39.973Z,25.40
2022-12-08T20:53:08.933Z,23.67
2022-12-08T20:55:36.856Z,22.10
2022-12-08T20:58:04.670Z,23.25
2022-12-08T21:00:32.846Z,21.35
2022-12-08T21:03:01.109Z,23.70
2022-12-08T21:05:29.274Z,24.48
2022-12-08T21:07:57.827Z,20.33
2022-12-08T21:10:25.990Z,24.60
2022-12-08T21:12:53.861Z,24.15
2022-12-08T21:15:22.439Z,23.17
2022-12-08T21:17:50.759Z,22.88
2022-12-08T21:20:18.729Z,19.65
2022-12-08T21:22:46.790Z,23.90
2022-12-08T21:25:14.944Z,18.92
2022-12-08T21:27:42.655Z,22.40
2022-12-08T21:30:11.781Z,21.10
2022-12-08T21:32:40.372Z,25.23
2022-12-08T21:35:09.263Z,21.38
2022-12-08T21:37:37.376Z,17.77
2022-12-08T21:40:06.752Z,21.70
2022-12-08T21:42:43.979Z,26.33
2022-12-08T21:45:17.865Z,19.48
2022-12-08T21:47:47.825Z,22.52
2022-12-08T21:50:16.489Z,24.00
2022-12-08T21:52:46.119Z,23.15
2022-12-08T21:55:16.067Z,22.08
2022-12-08T21:57:44.192Z,25.02
2022-12-08T22:00:15.811Z,25.48
2022-12-08T22:02:44.441Z,27.30
2022-12-08T22:05:12.428Z,24.55
2022-12-08T22:07:41.284Z,25.65
2022-12-08T22:10:10.535Z,29.98
2022-12-08T22:12:38.576Z,23.95
2022-12-08T22:15:08.826Z,25.10
2022-12-08T22:17:41.579Z,20.98
2022-12-08T22:20:12.912Z,24.58
2022-12-08T22:22:41.771Z,25.20
2022-12-08T22:25:13.318Z,24.17
2022-12-08T22:27:41.540Z,28.95
2022-12-08T22:30:10.415Z,26.85
2022-12-08T22:32:39.582Z,24.02
2022-12-08T22:35:07.902Z,26.45
2022-12-08T22:37:35.807Z,26.48
2022-12-08T22:40:04.871Z,31.08
2022-12-08T22:42:33.020Z,27.65
2022-12-08T22:45:01.762Z,28.25
2022-12-08T22:47:36.716Z,27.15
2022-12-08T22:50:06.134Z,28.38
2022-12-08T22:52:34.794Z,26.33
2022-12-08T22:55:03.476Z,25.88
2022-12-08T22:57:31.593Z,31.05
2022-12-08T23:00:03.674Z,30.42
2022-12-08T23:02:37.006Z,24.23
2022-12-08T23:05:06.721Z,21.92
2022-12-08T23:07:35.252Z,29.80
2022-12-08T23:10:04.430Z,25.15
2022-12-08T23:12:33.253Z,27.33
2022-12-08T23:15:01.057Z,25.60
2022-12-08T23:17:32.404Z,26.88
2022-12-08T23:20:00.529Z,25.75
2022-12-08T23:22:28.375Z,29.63
2022-12-08T23:24:56.573Z,24.55
2022-12-08T23:27:24.466Z,24.38
2022-12-08T23:29:52.374Z,29.13
2022-12-08T23:32:20.373Z,26.95
2022-12-08T23:34:48.963Z,23.60
2022-12-08T23:37:17.376Z,24.05
2022-12-08T23:39:45.516Z,23.75
2022-12-08T23:42:13.996Z,26.27
2022-12-08T23:44:42.092Z,23.58
2022-12-08T23:47:10.242Z,24.52
2022-12-08T23:49:38.423Z,23.67
2022-12-08T23:52:07.179Z,26.20
2022-12-08T23:54:36.513Z,25.92
2022-12-08T23:57:04.508Z,22.40
2022-12-08T23:59:33.119Z,25.20
